Time;durP1;ratioP1;P1;durP2;ratioP2;P2;SDS_P1;SDS_P2;PMS_P1;PMS_P2;Temp;Humidity;BMP_temperature;BMP_pressure;BME280_temperature;BME280_humidity;BME280_pressure;Samples;Min_cycle;Max_cycle;Signal;HPM_P1;HPM_P2
2022/06/17 00:00:50;;;;;;;13.87;10.93;;;16.60;99.90;;;;;;5093234;28;20278;-75
2022/06/17 00:03:17;;;;;;;13.53;11.60;;;16.50;99.90;;;;;;5075283;28;20048;-75
2022/06/17 00:05:43;;;;;;;14.97;11.10;;;16.50;99.90;;;;;;5093405;28;20052;-75
2022/06/17 00:08:20;;;;;;;15.27;11.17;;;16.50;99.90;;;;;;5093007;28;20278;-75
2022/06/17 00:10:46;;;;;;;15.17;11.60;;;16.40;99.90;;;;;;5092981;28;20785;-75
2022/06/17 00:13:17;;;;;;;15.87;12.33;;;16.40;99.90;;;;;;5075213;28;20328;-75
2022/06/17 00:15:45;;;;;;;14.77;10.57;;;16.40;99.90;;;;;;5093188;28;20518;-75
2022/06/17 00:18:15;;;;;;;14.70;11.03;;;16.40;99.90;;;;;;5092752;28;20301;-75
2022/06/17 00:20:41;;;;;;;13.33;10.77;;;16.40;99.90;;;;;;5092756;28;20754;-75
2022/06/17 00:23:21;;;;;;;14.83;11.20;;;16.40;99.90;;;;;;5092817;28;20282;-75
2022/06/17 00:25:49;;;;;;;13.30;11.90;;;16.30;99.90;;;;;;5093297;28;20309;-75
2022/06/17 00:28:20;;;;;;;18.73;11.37;;;16.30;99.90;;;;;;5092732;28;20878;-76
2022/06/17 00:30:48;;;;;;;14.40;11.30;;;16.30;99.90;;;;;;5093207;28;20284;-75
2022/06/17 00:33:16;;;;;;;14.30;10.87;;;16.30;99.90;;;;;;5095041;28;20299;-75
2022/06/17 00:35:46;;;;;;;16.07;11.23;;;16.30;99.90;;;;;;5079604;28;20294;-75
2022/06/17 00:38:24;;;;;;;12.43;9.80;;;16.30;99.90;;;;;;5097039;28;20098;-75
2022/06/17 00:40:51;;;;;;;12.93;10.30;;;16.30;99.90;;;;;;5096881;28;20638;-75
2022/06/17 00:43:30;;;;;;;14.73;10.00;;;16.20;99.90;;;;;;5096858;28;20789;-76
2022/06/17 00:46:14;;;;;;;12.90;10.07;;;16.20;99.90;;;;;;5097418;28;20293;-76
2022/06/17 00:48:46;;;;;;;12.53;10.70;;;16.20;99.90;;;;;;5079397;28;20330;-76
2022/06/17 00:51:23;;;;;;;12.17;10.23;;;16.10;99.90;;;;;;5096754;28;20664;-76
2022/06/17 00:54:24;;;;;;;12.93;9.80;;;16.10;99.90;;;;;;5096989;28;20278;-76
2022/06/17 00:56:50;;;;;;;12.30;10.00;;;16.20;99.90;;;;;;5097113;28;20375;-76
2022/06/17 00:59:15;;;;;;;12.90;9.37;;;16.20;99.90;;;;;;5096137;28;20282;-75
2022/06/17 01:02:03;;;;;;;11.70;9.10;;;16.20;99.90;;;;;;5078655;28;20305;-76
2022/06/17 01:04:33;;;;;;;13.13;9.07;;;16.10;99.90;;;;;;5096843;28;20134;-76
2022/06/17 01:07:10;;;;;;;10.90;8.80;;;16.20;99.90;;;;;;5062245;28;20309;-76
2022/06/17 01:12:25;;;;;;;11.35;8.93;;;16.10;99.90;;;;;;5096374;28;20278;-76
2022/06/17 01:14:52;;;;;;;11.10;8.53;;;16.10;99.90;;;;;;5078365;28;20561;-76
2022/06/17 01:17:18;;;;;;;12.67;8.10;;;16.00;99.90;;;;;;5078367;28;20277;-76
2022/06/17 01:19:50;;;;;;;11.40;8.37;;;16.00;99.90;;;;;;5096354;28;20314;-76
2022/06/17 01:22:26;;;;;;;12.67;8.77;;;15.90;99.90;;;;;;5078039;28;20393;-76
2022/06/17 01:25:01;;;;;;;11.47;8.33;;;;;;;;;;5096268;28;20289;-75
2022/06/17 01:27:33;;;;;;;12.43;8.30;;;15.90;99.90;;;;;;5095953;28;20278;-75
2022/06/17 01:30:00;;;;;;;11.10;7.90;;;15.80;99.90;;;;;;5096427;28;20052;-76
2022/06/17 01:32:30;;;;;;;10.50;8.20;;;15.70;99.90;;;;;;5095911;28;20281;-75
2022/06/17 01:34:56;;;;;;;11.63;7.43;;;15.70;99.90;;;;;;5096408;28;20286;-76
2022/06/17 01:37:22;;;;;;;10.43;7.60;;;15.70;99.90;;;;;;5095798;28;20282;-76
2022/06/17 01:39:48;;;;;;;20.93;8.67;;;15.70;99.90;;;;;;5095783;28;20373;-76
2022/06/17 01:42:15;;;;;;;12.33;8.13;;;;;;;;;;5095681;28;20422;-76
2022/06/17 01:44:41;;;;;;;12.83;8.67;;;15.60;99.90;;;;;;5095472;28;20637;-76
2022/06/17 01:47:12;;;;;;;10.37;7.93;;;15.60;99.90;;;;;;5095322;28;20747;-76
2022/06/17 01:49:48;;;;;;;11.37;8.07;;;15.70;99.90;;;;;;5096035;28;20360;-76
2022/06/17 01:52:19;;;;;;;9.97;7.83;;;15.70;99.90;;;;;;5095674;28;20320;-76
2022/06/17 01:54:57;;;;;;;8.53;7.10;;;15.70;99.90;;;;;;5095935;28;20730;-76
2022/06/17 01:57:29;;;;;;;12.43;8.17;;;15.70;99.90;;;;;;5095563;28;20749;-76
2022/06/17 01:59:59;;;;;;;12.23;8.80;;;15.70;99.90;;;;;;5095840;28;20278;-76
2022/06/17 02:02:25;;;;;;;9.10;7.70;;;15.70;99.90;;;;;;5095211;28;20865;-76
2022/06/17 02:04:58;;;;;;;12.77;7.60;;;15.60;99.90;;;;;;5095514;28;20331;-76
2022/06/17 02:07:39;;;;;;;9.13;7.47;;;15.60;99.90;;;;;;5095364;28;20354;-76
2022/06/17 02:10:05;;;;;;;12.03;8.13;;;15.60;99.90;;;;;;5077516;28;20283;-75
2022/06/17 02:12:31;;;;;;;12.23;8.17;;;15.60;99.90;;;;;;5095192;28;20334;-76
2022/06/17 02:14:57;;;;;;;11.60;6.93;;;15.60;99.90;;;;;;5095526;28;20278;-76
2022/06/17 02:17:32;;;;;;;10.70;7.17;;;15.60;99.90;;;;;;5076897;28;20047;-76
2022/06/17 02:19:58;;;;;;;;;;;15.60;99.90;;;;;;5095689;28;20282;-76
2022/06/17 02:22:29;;;;;;;11.43;8.63;;;15.70;99.90;;;;;;5094874;28;19971;-76
2022/06/17 02:24:58;;;;;;;11.43;8.17;;;15.70;99.90;;;;;;5094894;28;20563;-76
2022/06/17 02:27:25;;;;;;;9.57;7.63;;;15.60;99.90;;;;;;5077059;28;20285;-76
2022/06/17 02:29:51;;;;;;;8.83;7.17;;;;;;;;;;5095100;28;20286;-76
2022/06/17 02:32:18;;;;;;;9.50;7.10;;;15.50;99.90;;;;;;5094847;28;20286;-76
2022/06/17 02:34:56;;;;;;;9.97;7.13;;;15.50;99.90;;;;;;5094975;28;20314;-76
2022/06/17 02:37:23;;;;;;;11.63;6.87;;;15.50;99.90;;;;;;5094670;28;20320;-76
2022/06/17 02:39:51;;;;;;;9.67;6.80;;;15.50;99.90;;;;;;5094774;28;20623;-76
2022/06/17 02:42:17;;;;;;;9.17;6.53;;;15.50;99.90;;;;;;5094475;28;20323;-76
2022/06/17 02:44:43;;;;;;;10.80;6.90;;;15.60;99.90;;;;;;5095131;28;20282;-75
2022/06/17 02:47:10;;;;;;;12.47;6.73;;;15.50;99.90;;;;;;5094728;28;20057;-76
2022/06/17 02:49:38;;;;;;;10.13;6.80;;;15.60;99.90;;;;;;5094382;28;20373;-76
2022/06/17 02:52:14;;;;;;;9.53;6.87;;;15.50;99.90;;;;;;5094561;28;20680;-76
2022/06/17 02:54:43;;;;;;;9.73;6.40;;;15.50;99.90;;;;;;5094308;28;20642;-76
2022/06/17 02:57:13;;;;;;;8.23;6.23;;;15.50;99.90;;;;;;5094192;28;20803;-76
2022/06/17 02:59:45;;;;;;;10.60;6.77;;;15.60;99.90;;;;;;5094416;28;20392;-76
2022/06/17 03:02:19;;;;;;;10.00;7.17;;;15.50;99.90;;;;;;5094502;28;20306;-76
2022/06/17 03:04:46;;;;;;;9.70;6.30;;;15.60;99.90;;;;;;5094405;28;20282;-76
2022/06/17 03:07:17;;;;;;;10.07;7.27;;;15.60;99.90;;;;;;5094453;28;20677;-76
2022/06/17 03:09:43;;;;;;;11.17;6.10;;;15.60;99.90;;;;;;5094288;28;20278;-76
2022/06/17 03:12:14;;;;;;;9.90;6.00;;;15.60;99.90;;;;;;5076180;28;20623;-76
2022/06/17 03:15:11;;;;;;;9.53;6.50;;;15.70;99.90;;;;;;5093954;28;20357;-76
2022/06/17 03:17:40;;;;;;;8.20;6.20;;;15.70;99.90;;;;;;5093887;28;20331;-76
2022/06/17 03:20:09;;;;;;;11.03;6.17;;;15.60;99.90;;;;;;5094077;28;20287;-76
2022/06/17 03:22:35;;;;;;;11.73;6.73;;;15.60;99.90;;;;;;5093671;28;20638;-76
2022/06/17 03:25:15;;;;;;;11.80;6.80;;;15.60;99.90;;;;;;5094035;28;20278;-76
2022/06/17 03:27:48;;;;;;;9.83;6.23;;;15.60;99.90;;;;;;5093741;28;20278;-76
2022/06/17 03:30:21;;;;;;;10.17;6.57;;;15.60;99.90;;;;;;5076140;28;20381;-75
2022/06/17 03:32:54;;;;;;;10.17;6.57;;;15.60;99.90;;;;;;5094130;28;20313;-76
2022/06/17 03:35:24;;;;;;;12.40;6.60;;;15.60;99.90;;;;;;5093717;28;20270;-76
2022/06/17 03:37:51;;;;;;;12.70;6.53;;;15.70;99.90;;;;;;5093582;28;20322;-76
2022/06/17 03:40:30;;;;;;;10.40;6.47;;;15.70;99.90;;;;;;5093562;28;20306;-75
2022/06/17 03:43:11;;;;;;;9.53;6.17;;;15.70;99.90;;;;;;5093350;28;20360;-75
2022/06/17 03:45:51;;;;;;;11.20;6.50;;;15.70;99.90;;;;;;5075539;28;20634;-75
2022/06/17 03:48:27;;;;;;;7.87;6.30;;;15.80;99.90;;;;;;5093633;28;20357;-75
2022/06/17 03:50:53;;;;;;;11.00;6.27;;;15.80;99.90;;;;;;5093794;28;20278;-75
2022/06/17 03:53:21;;;;;;;10.33;6.90;;;15.80;99.90;;;;;;5093476;28;20278;-75
2022/06/17 03:55:48;;;;;;;10.53;5.63;;;15.90;99.90;;;;;;5093558;28;20047;-75
2022/06/17 03:58:17;;;;;;;9.10;5.87;;;16.00;99.90;;;;;;5093613;28;20290;-75
2022/06/17 04:00:54;;;;;;;11.30;6.37;;;;;;;;;;5093044;28;20365;-76
2022/06/17 04:03:25;;;;;;;11.80;6.00;;;16.20;99.90;;;;;;5075195;28;20680;-79
2022/06/17 04:06:25;;;;;;;8.87;5.97;;;16.20;99.90;;;;;;5093227;28;20750;-75
2022/06/17 04:08:55;;;;;;;7.83;6.00;;;16.20;99.90;;;;;;5060057;28;20647;-75
2022/06/17 04:11:23;;;;;;;11.00;6.03;;;16.20;99.90;;;;;;5093238;28;20274;-75
2022/06/17 04:13:51;;;;;;;9.77;5.93;;;16.30;99.90;;;;;;5093220;28;20325;-75
2022/06/17 04:16:40;;;;;;;9.87;6.00;;;;;;;;;;5093197;28;20744;-75
2022/06/17 04:19:21;;;;;;;11.00;5.90;;;16.30;99.90;;;;;;5075618;28;20348;-75
2022/06/17 04:21:48;;;;;;;11.37;5.47;;;16.30;99.90;;;;;;5092831;28;20298;-75
2022/06/17 04:24:22;;;;;;;8.90;5.90;;;16.40;99.90;;;;;;5075305;28;20366;-75
2022/06/17 04:26:52;;;;;;;10.27;5.73;;;16.40;99.90;;;;;;5092813;28;20349;-76
2022/06/17 04:29:21;;;;;;;9.63;5.90;;;16.40;99.90;;;;;;5092731;28;20270;-76
2022/06/17 04:32:00;;;;;;;10.93;6.87;;;16.40;99.90;;;;;;5092750;28;20365;-76
2022/06/17 04:34:26;;;;;;;11.93;6.37;;;16.40;99.90;;;;;;5075001;28;20795;-77
2022/06/17 04:37:02;;;;;;;10.00;5.90;;;16.40;99.90;;;;;;5075174;28;20298;-76
2022/06/17 04:39:43;;;;;;;11.50;6.10;;;16.40;99.90;;;;;;5092719;28;20079;-76
2022/06/17 04:42:34;;;;;;;9.33;6.40;;;16.40;99.90;;;;;;5093115;28;20438;-76
2022/06/17 04:45:00;;;;;;;9.60;6.60;;;16.40;99.90;;;;;;5085310;28;20305;-76
2022/06/17 04:47:26;;;;;;;9.90;5.80;;;16.40;99.90;;;;;;5092702;28;20639;-82
2022/06/17 04:50:04;;;;;;;9.23;5.60;;;16.40;99.90;;;;;;5092799;28;20364;-76
2022/06/17 04:52:36;;;;;;;9.93;6.27;;;16.40;99.90;;;;;;5092565;28;20039;-76
2022/06/17 04:55:06;;;;;;;10.40;6.20;;;16.40;99.90;;;;;;5075106;28;20643;-76
2022/06/17 04:57:32;;;;;;;8.97;6.70;;;16.40;99.90;;;;;;5075013;28;20356;-76
2022/06/17 04:59:59;;;;;;;10.87;6.47;;;16.40;99.90;;;;;;5092720;28;20385;-76
2022/06/17 05:02:31;;;;;;;11.53;6.53;;;16.40;99.90;;;;;;5075022;28;20123;-76
2022/06/17 05:05:00;;;;;;;8.33;6.17;;;16.40;99.90;;;;;;5092746;28;20318;-76
2022/06/17 05:07:30;;;;;;;10.33;6.40;;;16.40;99.90;;;;;;5092640;28;20278;-75
2022/06/17 05:10:01;;;;;;;10.90;6.83;;;16.40;99.90;;;;;;5074962;28;20376;-75
2022/06/17 05:12:40;;;;;;;8.27;6.23;;;16.40;99.90;;;;;;5092732;28;20282;-75
2022/06/17 05:15:08;;;;;;;8.90;6.50;;;16.40;99.90;;;;;;5092471;28;20820;-76
2022/06/17 05:17:34;;;;;;;10.40;6.17;;;16.50;99.90;;;;;;5092225;28;20371;-76
2022/06/17 05:20:00;;;;;;;9.47;6.27;;;16.50;99.90;;;;;;5095867;28;20286;-76
2022/06/17 05:22:34;;;;;;;9.30;6.70;;;16.50;99.90;;;;;;5096296;28;20086;-76
2022/06/17 05:25:04;;;;;;;9.27;5.97;;;16.50;99.90;;;;;;5078254;28;20055;-76
2022/06/17 05:27:30;;;;;;;11.20;7.00;;;16.60;99.90;;;;;;5096298;28;20274;-76
2022/06/17 05:29:55;;;;;;;9.57;6.83;;;16.60;99.90;;;;;;5078244;28;20278;-76
2022/06/17 05:32:21;;;;;;;8.53;6.50;;;16.60;99.90;;;;;;5096085;28;20043;-75
2022/06/17 05:34:47;;;;;;;9.53;6.37;;;16.70;99.90;;;;;;5095866;28;20048;-76
2022/06/17 05:37:14;;;;;;;8.73;6.33;;;16.70;99.90;;;;;;5096161;28;20048;-76
2022/06/17 05:39:40;;;;;;;13.37;6.90;;;16.80;99.90;;;;;;5095296;28;20293;-75
2022/06/17 05:42:06;;;;;;;9.50;6.23;;;16.80;99.90;;;;;;5096143;28;20052;-76
2022/06/17 05:44:33;;;;;;;9.77;6.60;;;16.90;99.90;;;;;;5095946;28;20768;-79
2022/06/17 05:46:58;;;;;;;10.57;6.63;;;16.90;99.90;;;;;;5095900;28;20278;-76
2022/06/17 05:49:25;;;;;;;9.67;6.30;;;16.90;99.90;;;;;;5095837;28;20335;-75
2022/06/17 05:51:51;;;;;;;8.60;6.17;;;16.90;99.90;;;;;;5095567;28;20048;-75
2022/06/17 05:54:17;;;;;;;13.50;6.57;;;16.90;99.90;;;;;;5095936;28;20372;-75
2022/06/17 05:56:42;;;;;;;9.90;6.83;;;17.00;99.90;;;;;;5077387;28;20381;-75
2022/06/17 05:59:10;;;;;;;12.73;6.50;;;17.00;99.90;;;;;;5077844;28;20097;-75
2022/06/17 06:01:37;;;;;;;12.07;6.40;;;17.10;99.90;;;;;;5095203;28;20044;-75
2022/06/17 06:04:03;;;;;;;9.83;6.73;;;17.10;99.90;;;;;;5077742;28;20765;-75
2022/06/17 06:06:29;;;;;;;10.30;6.53;;;17.20;99.90;;;;;;5095683;28;20384;-75
2022/06/17 06:08:55;;;;;;;11.67;7.37;;;17.20;99.90;;;;;;5095186;28;20059;-75
2022/06/17 06:11:20;;;;;;;12.27;6.87;;;17.30;99.90;;;;;;5095644;28;20047;-75
2022/06/17 06:13:46;;;;;;;10.23;6.57;;;17.40;99.90;;;;;;5095138;28;20052;-75
2022/06/17 06:16:13;;;;;;;8.17;6.77;;;17.50;99.90;;;;;;5095450;28;20503;-75
2022/06/17 06:18:39;;;;;;;13.23;6.70;;;17.70;99.90;;;;;;5095057;28;20047;-75
2022/06/17 06:21:05;;;;;;;10.73;7.03;;;17.80;99.90;;;;;;5095161;28;20048;-75
2022/06/17 06:23:36;;;;;;;10.03;7.17;;;17.90;99.90;;;;;;5095196;28;20052;-75
2022/06/17 06:26:03;;;;;;;9.23;6.23;;;18.10;99.90;;;;;;5095385;28;20062;-75
2022/06/17 06:28:29;;;;;;;9.30;6.37;;;18.20;99.90;;;;;;5095282;28;20154;-76
2022/06/17 06:31:25;;;;;;;8.67;6.90;;;18.40;99.90;;;;;;5093620;28;20080;-75
2022/06/17 06:33:52;;;;;;;12.77;7.83;;;18.40;99.90;;;;;;5070686;28;20067;-76
2022/06/17 06:36:17;;;;;;;10.40;6.37;;;18.40;99.90;;;;;;5095255;28;20047;-75
2022/06/17 06:38:43;;;;;;;13.50;7.43;;;18.40;99.90;;;;;;5059851;28;20048;-75
2022/06/17 06:41:09;;;;;;;10.93;6.87;;;18.50;99.90;;;;;;5094783;28;20194;-75
2022/06/17 06:43:36;;;;;;;11.67;7.27;;;18.50;99.90;;;;;;5076795;28;20412;-75
2022/06/17 06:46:07;;;;;;;9.10;6.93;;;18.60;99.90;;;;;;5094480;28;20127;-75
2022/06/17 06:48:33;;;;;;;10.20;6.80;;;18.60;99.90;;;;;;5094931;28;20044;-75
2022/06/17 06:50:59;;;;;;;9.67;6.93;;;18.60;99.90;;;;;;5094438;28;20036;-75
2022/06/17 06:53:24;;;;;;;12.27;8.30;;;18.60;99.90;;;;;;5094689;28;20051;-75
2022/06/17 06:55:50;;;;;;;12.07;7.97;;;18.50;99.90;;;;;;5094290;28;20047;-75
2022/06/17 06:58:22;;;;;;;10.47;7.10;;;18.60;99.90;;;;;;5094544;28;20101;-75
2022/06/17 07:00:56;;;;;;;14.93;7.77;;;18.60;99.90;;;;;;5093983;28;20569;-75
2022/06/17 07:03:24;;;;;;;16.00;8.03;;;18.70;99.90;;;;;;5094489;28;20043;-75
2022/06/17 07:05:52;;;;;;;11.87;7.80;;;18.70;99.90;;;;;;5094118;28;20051;-76
2022/06/17 07:08:20;;;;;;;10.87;7.60;;;18.70;99.90;;;;;;5094669;28;20087;-73
2022/06/17 07:10:47;;;;;;;10.83;8.17;;;18.90;99.90;;;;;;5094108;28;20047;-75
2022/06/17 07:13:13;;;;;;;12.07;7.20;;;19.00;99.90;;;;;;5094351;28;20052;-74
2022/06/17 07:15:42;;;;;;;11.50;7.80;;;19.30;99.90;;;;;;5094177;28;20051;-74
2022/06/17 07:18:35;;;;;;;11.13;8.23;;;19.60;99.90;;;;;;5094389;28;20138;-75
2022/06/17 07:21:04;;;;;;;10.40;7.70;;;19.90;99.90;;;;;;5090809;28;20117;-75
2022/06/17 07:23:36;;;;;;;12.43;7.80;;;20.20;99.90;;;;;;5093780;28;20484;-75
2022/06/17 07:26:08;;;;;;;12.57;7.07;;;20.50;99.90;;;;;;5093731;28;20036;-75
2022/06/17 07:28:34;;;;;;;10.80;7.83;;;20.60;99.90;;;;;;5094104;28;20384;-75
2022/06/17 07:31:01;;;;;;;15.93;7.97;;;20.70;99.90;;;;;;5093692;28;20120;-75
2022/06/17 07:33:29;;;;;;;11.50;7.17;;;20.80;99.90;;;;;;5093995;28;20051;-75
2022/06/17 07:35:57;;;;;;;11.77;7.53;;;;;;;;;;5093569;28;20478;-75
2022/06/17 07:41:13;;;;;;;12.10;7.57;;;20.90;98.70;;;;;;5093372;28;20052;-75
2022/06/17 07:43:40;;;;;;;11.13;7.33;;;21.00;98.90;;;;;;5075756;28;20048;-75
2022/06/17 07:46:06;;;;;;;14.47;8.57;;;21.10;99.00;;;;;;5093389;28;20083;-75
2022/06/17 07:48:33;;;;;;;10.93;8.40;;;21.20;98.60;;;;;;5093775;28;20408;-75
2022/06/17 07:50:59;;;;;;;12.13;8.07;;;21.30;97.90;;;;;;5093316;28;20055;-75
2022/06/17 07:53:27;;;;;;;10.13;7.20;;;21.40;97.00;;;;;;5075988;28;20051;-75
2022/06/17 07:55:53;;;;;;;10.80;8.07;;;21.40;95.90;;;;;;5093267;28;20098;-75
2022/06/17 07:58:19;;;;;;;12.17;8.13;;;21.50;96.70;;;;;;5093688;28;20492;-75
2022/06/17 08:00:46;;;;;;;13.97;7.83;;;21.60;96.40;;;;;;5075750;28;20044;-76
2022/06/17 08:03:14;;;;;;;12.83;7.97;;;21.60;96.00;;;;;;5093050;28;20432;-75
2022/06/17 08:05:48;;;;;;;13.90;7.40;;;21.70;96.10;;;;;;5093059;28;20097;-74
2022/06/17 08:08:21;;;;;;;11.33;7.53;;;22.20;95.10;;;;;;5093378;28;20040;-75
2022/06/17 08:10:47;;;;;;;15.47;7.43;;;;;;;;;;5093445;28;20045;-74
2022/06/17 08:13:13;;;;;;;14.37;7.43;;;;;;;;;;5093272;28;20050;-74
2022/06/17 08:15:39;;;;;;;10.03;6.37;;;23.90;99.90;;;;;;5093223;28;20044;-75
2022/06/17 08:18:05;;;;;;;11.20;6.83;;;24.60;85.60;;;;;;5092957;28;20322;-76
2022/06/17 08:20:34;;;;;;;12.77;6.03;;;25.40;78.80;;;;;;5075365;28;20044;-74
2022/06/17 08:23:02;;;;;;;10.90;6.37;;;25.70;69.80;;;;;;5074879;28;20044;-76
2022/06/17 08:25:28;;;;;;;9.10;6.47;;;25.60;67.20;;;;;;5093227;28;20044;-76
2022/06/17 08:27:56;;;;;;;10.00;5.60;;;25.50;66.20;;;;;;5092894;28;20051;-75
2022/06/17 08:30:25;;;;;;;9.00;4.83;;;25.20;64.10;;;;;;5093067;28;20044;-75
2022/06/17 08:32:55;;;;;;;8.60;5.60;;;24.80;64.50;;;;;;5075158;28;20047;-79
2022/06/17 08:35:26;;;;;;;7.80;5.23;;;;;;;;;;5093070;28;20081;-75
2022/06/17 08:37:56;;;;;;;9.53;5.20;;;24.20;95.40;;;;;;5093649;28;20044;-75
2022/06/17 08:40:43;;;;;;;8.33;5.40;;;24.00;66.60;;;;;;5092693;28;20056;-76
2022/06/17 08:43:32;;;;;;;7.63;5.07;;;23.70;66.10;;;;;;5092537;28;20088;-77
2022/06/17 08:46:08;;;;;;;10.13;5.97;;;;;;;;;;5072900;28;20047;-76
2022/06/17 08:48:37;;;;;;;10.40;5.83;;;;;;;;;;5101957;28;20047;-75
2022/06/17 08:51:13;;;;;;;9.40;5.47;;;;;;;;;;5101669;28;20043;-76
2022/06/17 08:53:42;;;;;;;10.70;4.93;;;;;;;;;;5103505;28;20400;-75
2022/06/17 08:56:14;;;;;;;10.43;6.33;;;;;;;;;;5095201;28;20395;-77
2022/06/17 08:58:54;;;;;;;9.57;6.40;;;;;;;;;;5117251;28;20075;-80
2022/06/17 09:01:21;;;;;;;11.43;5.13;;;;;;;;;;5116344;28;20043;-77
2022/06/17 09:03:56;;;;;;;9.00;6.57;;;;;;;;;;5098867;28;20097;-77
2022/06/17 09:06:57;;;;;;;10.13;5.80;;;;;;;;;;5117125;28;20047;-76
2022/06/17 09:09:36;;;;;;;10.10;6.60;;;;;;;;;;5034297;28;20175;-77
2022/06/17 09:12:02;;;;;;;11.70;6.40;;;;;;;;;;5088845;28;20047;-76
2022/06/17 09:14:28;;;;;;;9.53;6.10;;;;;;;;;;5101541;28;20097;-76
2022/06/17 09:17:00;;;;;;;11.40;6.07;;;;;;;;;;5096421;28;20047;-76
2022/06/17 09:19:28;;;;;;;10.10;6.27;;;;;;;;;;5078416;28;20040;-75
2022/06/17 09:21:56;;;;;;;8.20;5.50;;;;;;;;;;5078147;28;20427;-74
2022/06/17 09:24:30;;;;;;;10.10;5.60;;;;;;;;;;5078296;28;20117;-71
2022/06/17 09:26:59;;;;;;;11.73;5.80;;;;;;;;;;5078449;28;20097;-71
2022/06/17 09:29:33;;;;;;;8.23;5.40;;;;;;;;;;5096583;28;20381;-77
2022/06/17 09:32:02;;;;;;;9.60;5.60;;;;;;;;;;5096058;28;20036;-71
2022/06/17 09:34:47;;;;;;;11.70;6.53;;;24.40;68.70;;;;;;5096273;28;20040;-71
2022/06/17 09:37:41;;;;;;;10.95;5.55;;;24.40;68.40;;;;;;5095959;28;20048;-72
2022/06/17 09:40:37;;;;;;;9.07;5.13;;;24.60;69.80;;;;;;5078011;28;20044;-72
2022/06/17 09:43:19;;;;;;;9.87;5.40;;;24.70;70.00;;;;;;5095236;28;20097;-71
2022/06/17 09:46:07;;;;;;;9.60;5.33;;;24.80;69.50;;;;;;5077679;28;20044;-70
2022/06/17 09:48:41;;;;;;;9.67;5.53;;;24.90;69.20;;;;;;5095922;28;20417;-73
2022/06/17 09:51:16;;;;;;;;;;;25.10;68.10;;;;;;5096034;28;20127;-73
2022/06/17 09:53:44;;;;;;;15.10;5.20;;;25.40;84.90;;;;;;5095814;28;19931;-68
2022/06/17 09:56:16;;;;;;;12.37;5.50;;;25.50;68.10;;;;;;5095500;28;20052;-69
2022/06/17 09:58:45;;;;;;;10.77;5.67;;;25.60;67.30;;;;;;5095693;28;20059;-68
2022/06/17 10:01:12;;;;;;;13.17;5.60;;;25.70;66.70;;;;;;5094917;28;20576;-68
2022/06/17 10:03:39;;;;;;;10.43;5.20;;;25.70;66.80;;;;;;5095617;28;20047;-68
2022/06/17 10:06:28;;;;;;;8.77;4.70;;;25.60;66.80;;;;;;5095022;28;20059;-69
2022/06/17 10:08:56;;;;;;;12.30;5.57;;;25.60;66.80;;;;;;5095573;28;20048;-69
2022/06/17 10:11:46;;;;;;;7.50;5.00;;;25.70;65.40;;;;;;5095275;28;20079;-67
2022/06/17 10:14:23;;;;;;;63.87;8.37;;;25.70;64.40;;;;;;5095269;28;20047;-69
2022/06/17 10:19:55;;;;;;;16.27;4.70;;;25.90;63.50;;;;;;5095379;28;20044;-70
2022/06/17 10:23:02;;;;;;;9.73;4.80;;;25.90;62.80;;;;;;5095023;28;20040;-70
2022/06/17 10:26:10;;;;;;;8.93;4.40;;;25.90;61.10;;;;;;5032393;28;20053;-77
2022/06/17 10:28:50;;;;;;;8.90;4.30;;;25.90;61.50;;;;;;5016549;28;20256;-75
2022/06/17 10:31:36;;;;;;;8.90;4.00;;;26.00;72.20;;;;;;5086878;28;20564;-74
2022/06/17 10:34:06;;;;;;;12.07;4.07;;;;;;;;;;5077387;28;20048;-74
2022/06/17 10:36:32;;;;;;;8.13;4.20;;;;;;;;;;5094688;28;20496;-75
2022/06/17 10:39:02;;;;;;;7.97;4.07;;;;;;;;;;5095011;28;20044;-75
2022/06/17 10:41:29;;;;;;;7.33;3.90;;;26.20;58.30;;;;;;5094528;28;20113;-75
2022/06/17 10:43:55;;;;;;;9.67;3.93;;;26.20;58.60;;;;;;5060662;28;20067;-74
2022/06/17 10:46:36;;;;;;;9.37;3.80;;;26.20;58.70;;;;;;5076621;28;20561;-74
2022/06/17 10:49:15;;;;;;;8.57;4.57;;;26.30;58.60;;;;;;5094828;28;20052;-75
2022/06/17 10:51:43;;;;;;;10.47;4.60;;;26.50;62.80;;;;;;5076703;28;20040;-72
2022/06/17 10:54:36;;;;;;;8.40;3.90;;;26.60;64.00;;;;;;5094178;28;20461;-74
2022/06/17 10:57:08;;;;;;;8.43;3.97;;;26.70;64.10;;;;;;5094656;28;20040;-68
2022/06/17 10:59:42;;;;;;;10.43;4.27;;;;;;;;;;5094635;28;20097;-73
2022/06/17 11:02:24;;;;;;;11.63;4.10;;;;;;;;;;5094658;28;20044;-77
2022/06/17 11:04:56;;;;;;;10.67;4.07;;;26.70;54.50;;;;;;5094783;28;20547;-73
2022/06/17 11:07:54;;;;;;;7.53;4.20;;;26.60;54.40;;;;;;5093803;28;20044;-71
2022/06/17 11:10:29;;;;;;;11.87;3.93;;;26.50;53.90;;;;;;5094143;28;20083;-73
2022/06/17 11:13:07;;;;;;;;;;;26.40;55.10;;;;;;5094742;28;20126;-74
2022/06/17 11:15:44;;;;;;;6.30;3.47;;;26.40;54.80;;;;;;5094002;28;19953;-75
2022/06/17 11:18:30;;;;;;;8.83;3.97;;;26.30;54.70;;;;;;5075864;28;20114;-74
2022/06/17 11:21:06;;;;;;;7.97;4.00;;;26.30;54.90;;;;;;5094231;28;20063;-76
2022/06/17 11:23:46;;;;;;;12.17;4.63;;;26.20;54.40;;;;;;5093858;28;20048;-78
2022/06/17 11:26:27;;;;;;;8.73;4.07;;;26.20;54.70;;;;;;5093898;28;20048;-72
2022/06/17 11:28:56;;;;;;;10.60;4.40;;;26.30;54.70;;;;;;5094072;28;20065;-76
2022/06/17 11:31:21;;;;;;;9.83;3.63;;;26.30;54.50;;;;;;5093682;28;20051;-75
2022/06/17 11:33:53;;;;;;;11.30;3.50;;;26.40;54.80;;;;;;5093935;28;20048;-75
2022/06/17 11:36:23;;;;;;;8.87;3.67;;;26.40;55.40;;;;;;5075770;28;20138;-76
2022/06/17 11:38:50;;;;;;;9.93;4.27;;;26.60;56.10;;;;;;5075814;28;20042;-79
2022/06/17 11:41:26;;;;;;;8.50;3.60;;;26.60;54.30;;;;;;5093323;28;20091;-77
2022/06/17 11:44:05;;;;;;;9.63;3.57;;;26.70;54.10;;;;;;5076015;28;20458;-78
2022/06/17 11:46:33;;;;;;;7.27;3.50;;;26.70;54.10;;;;;;5093403;28;20127;-74
2022/06/17 11:49:08;;;;;;;8.53;3.67;;;26.70;53.60;;;;;;5075727;28;20417;-78
2022/06/17 11:51:36;;;;;;;10.05;3.65;;;26.70;53.10;;;;;;5093510;28;20090;-76
2022/06/17 11:54:09;;;;;;;8.53;3.37;;;26.60;53.30;;;;;;5075583;28;20052;-78
2022/06/17 11:56:41;;;;;;;7.23;3.40;;;26.60;53.60;;;;;;5075067;28;20044;-76
2022/06/17 11:59:12;;;;;;;8.07;4.20;;;26.60;52.50;;;;;;5093543;28;20130;-74
2022/06/17 12:01:40;;;;;;;8.33;3.80;;;26.60;52.30;;;;;;5093069;28;20043;-69
2022/06/17 12:04:26;;;;;;;7.13;4.13;;;26.50;52.20;;;;;;5093404;28;20123;-69
2022/06/17 12:06:52;;;;;;;7.53;3.37;;;26.50;52.30;;;;;;5058816;28;20047;-73
2022/06/17 12:09:34;;;;;;;7.60;3.57;;;26.50;52.20;;;;;;5093236;28;20044;-75
2022/06/17 12:12:04;;;;;;;7.13;3.30;;;26.40;51.70;;;;;;5093209;28;20055;-74
2022/06/17 12:14:57;;;;;;;7.40;3.10;;;26.50;51.80;;;;;;5092949;28;20056;-74
2022/06/17 12:17:24;;;;;;;8.67;3.50;;;26.50;51.60;;;;;;5084850;28;20055;-74
2022/06/17 12:19:49;;;;;;;7.13;2.97;;;26.50;51.40;;;;;;5093085;28;20104;-74
2022/06/17 12:22:38;;;;;;;10.13;4.00;;;26.50;51.20;;;;;;5093048;28;20123;-73
2022/06/17 12:25:45;;;;;;;8.87;3.53;;;26.50;51.90;;;;;;5093258;28;20159;-74
2022/06/17 12:28:22;;;;;;;9.63;3.60;;;26.50;52.10;;;;;;5091248;28;20052;-74
2022/06/17 12:30:55;;;;;;;10.50;3.07;;;26.60;52.00;;;;;;5093078;28;20055;-73
2022/06/17 12:33:30;;;;;;;6.47;2.70;;;26.60;51.70;;;;;;5092892;28;20037;-75
2022/06/17 12:36:21;;;;;;;10.17;3.30;;;26.60;51.20;;;;;;5093307;28;20052;-74
2022/06/17 12:39:03;;;;;;;11.13;3.23;;;26.60;50.60;;;;;;5093080;28;20048;-74
2022/06/17 12:41:43;;;;;;;6.83;3.10;;;;;;;;;;5092554;28;20540;-75
2022/06/17 12:44:30;;;;;;;6.73;2.60;;;;;;;;;;5093289;28;20059;-74
2022/06/17 12:47:02;;;;;;;6.27;2.97;;;;;;;;;;5093095;28;20399;-74
2022/06/17 12:55:44;;;;;;;7.90;3.00;;;27.10;49.80;;;;;;5092875;28;20048;-74
2022/06/17 12:58:21;;;;;;;10.00;3.00;;;27.00;50.70;;;;;;5092558;28;20496;-74
2022/06/17 13:00:58;;;;;;;7.90;2.90;;;27.10;50.00;;;;;;5092817;28;20050;-74
2022/06/17 13:03:58;;;;;;;6.43;3.10;;;27.10;49.90;;;;;;5092770;28;20052;-74
2022/06/17 13:06:47;;;;;;;6.57;3.00;;;27.10;50.10;;;;;;5092532;28;20048;-74
2022/06/17 13:09:40;;;;;;;6.83;3.10;;;27.10;49.30;;;;;;5092615;28;20579;-73
2022/06/17 13:12:14;;;;;;;9.33;3.47;;;27.10;49.90;;;;;;5074929;28;20060;-73
2022/06/17 13:14:40;;;;;;;;;;;;;;;;;;5092557;28;20557;-72
2022/06/17 13:17:15;;;;;;;6.83;3.23;;;;;;;;;;5092640;28;19924;-73
2022/06/17 13:20:01;;;;;;;6.87;2.80;;;;;;;;;;5092418;28;20396;-73
2022/06/17 13:22:37;;;;;;;9.63;3.07;;;;;;;;;;5092377;28;20044;-74
2022/06/17 13:25:10;;;;;;;11.07;2.93;;;;;;;;;;5074728;28;20496;-74
2022/06/17 13:27:44;;;;;;;6.22;2.97;;;;;;;;;;5074261;28;20044;-73
2022/06/17 13:30:32;;;;;;;6.03;3.35;;;;;;;;;;5092745;28;20134;-73
2022/06/17 13:33:04;;;;;;;8.73;3.20;;;;;;;;;;5092598;28;20106;-74
2022/06/17 13:35:39;;;;;;;6.43;2.60;;;;;;;;;;5073732;28;20040;-73
2022/06/17 13:38:05;;;;;;;10.23;2.80;;;;;;;;;;5092381;28;20086;-74